Time;durP1;ratioP1;P1;durP2;ratioP2;P2;SDS_P1;SDS_P2;PMS_P1;PMS_P2;Temp;Humidity;BMP_temperature;BMP_pressure;BME280_temperature;BME280_humidity;BME280_pressure;Samples;Min_cycle;Max_cycle;Signal;HPM_P1;HPM_P2
2023/07/16 00:00:53;;;;;;;8.93;4.75;;;;;;;;;;5071060;28;20008;-77
2023/07/16 00:03:19;;;;;;;15.93;4.32;;;;;;;;;;5073366;28;20028;-75
2023/07/16 00:05:45;;;;;;;7.85;4.32;;;;;;;;;;5066711;28;20032;-76
2023/07/16 00:08:11;;;;;;;11.45;3.80;;;;;;;;;;5072314;28;20031;-77
2023/07/16 00:10:38;;;;;;;6.97;3.78;;;;;;;;;;5070788;28;20024;-76
2023/07/16 00:13:04;;;;;;;11.00;3.65;;;;;;;;;;5072421;28;20021;-76
2023/07/16 00:15:30;;;;;;;10.25;3.50;;;;;;;;;;5070229;28;20048;-76
2023/07/16 00:17:57;;;;;;;5.47;3.00;;;;;;;;;;5066432;28;20482;-75
2023/07/16 00:20:26;;;;;;;7.20;3.65;;;;;;;;;;5065529;28;20021;-76
2023/07/16 00:22:52;;;;;;;6.45;3.13;;;;;;;;;;5062281;28;20028;-76
2023/07/16 00:25:18;;;;;;;12.65;4.53;;;;;;;;;;5066768;28;20043;-77
2023/07/16 00:27:44;;;;;;;10.32;3.63;;;;;;;;;;5070756;28;20063;-77
2023/07/16 00:30:10;;;;;;;11.48;3.10;;;;;;;;;;5061830;28;20028;-77
2023/07/16 00:32:37;;;;;;;10.20;3.75;;;;;;;;;;5066701;28;20131;-77
2023/07/16 00:35:03;;;;;;;8.25;4.28;;;;;;;;;;5067654;28;20056;-76
2023/07/16 00:37:29;;;;;;;10.25;4.40;;;;;;;;;;5071482;28;20032;-76
2023/07/16 00:39:55;;;;;;;10.80;3.65;;;;;;;;;;5074782;28;20020;-77
2023/07/16 00:42:22;;;;;;;9.35;3.13;;;;;;;;;;5066325;28;20512;-76
2023/07/16 00:44:48;;;;;;;13.77;3.78;;;;;;;;;;5070627;28;20039;-76
2023/07/16 00:47:14;;;;;;;10.45;3.40;;;;;;;;;;5061065;28;20062;-77
2023/07/16 00:49:40;;;;;;;12.38;4.00;;;;;;;;;;5065481;28;20028;-76
2023/07/16 00:52:08;;;;;;;7.93;3.55;;;;;;;;;;5066455;28;20060;-77
2023/07/16 00:54:34;;;;;;;10.18;3.67;;;;;;;;;;5072584;28;20021;-77
2023/07/16 00:57:00;;;;;;;7.40;3.30;;;;;;;;;;5067626;28;20063;-76
2023/07/16 00:59:27;;;;;;;8.00;3.30;;;;;;;;;;5071791;28;20040;-77
2023/07/16 01:01:53;;;;;;;9.68;3.58;;;;;;;;;;5057122;28;20024;-76
2023/07/16 01:04:19;;;;;;;14.52;3.55;;;;;;;;;;5068074;28;20047;-77
2023/07/16 01:06:46;;;;;;;12.85;4.10;;;;;;;;;;5061061;28;20035;-76
2023/07/16 01:09:19;;;;;;;9.98;4.35;;;;;;;;;;5061741;28;20017;-76
2023/07/16 01:11:46;;;;;;;5.35;3.15;;;;;;;;;;5062548;28;20021;-76
2023/07/16 01:14:13;;;;;;;10.27;3.88;;;;;;;;;;5081365;28;20488;-77
2023/07/16 01:16:39;;;;;;;10.00;3.60;;;;;;;;;;5067479;28;20055;-77
2023/07/16 01:19:08;;;;;;;8.15;3.58;;;;;;;;;;5065795;28;20051;-77
2023/07/16 01:21:34;;;;;;;10.23;3.55;;;;;;;;;;5064604;28;20057;-75
2023/07/16 01:24:01;;;;;;;7.93;4.18;;;;;;;;;;5066120;28;20461;-76
2023/07/16 01:26:33;;;;;;;11.75;3.53;;;;;;;;;;5064201;28;20032;-76
2023/07/16 01:29:19;;;;;;;10.65;4.03;;;;;;;;;;5063873;28;20087;-76
2023/07/16 01:31:46;;;;;;;6.43;4.05;;;;;;;;;;5073379;28;20024;-77
2023/07/16 01:34:12;;;;;;;9.98;3.42;;;;;;;;;;5067364;28;20032;-75
2023/07/16 01:36:43;;;;;;;9.25;3.75;;;;;;;;;;5067717;28;20028;-76
2023/07/16 01:39:09;;;;;;;10.30;2.97;;;;;;;;;;5066039;28;20024;-76
2023/07/16 01:41:35;;;;;;;11.07;3.50;;;;;;;;;;5065172;28;20017;-77
2023/07/16 01:44:01;;;;;;;8.50;3.78;;;;;;;;;;5068051;28;20059;-76
2023/07/16 01:46:29;;;;;;;8.95;3.55;;;;;;;;;;5074180;28;20077;-77
2023/07/16 01:48:55;;;;;;;8.35;3.80;;;;;;;;;;5066781;28;20021;-76
2023/07/16 01:51:21;;;;;;;7.15;3.67;;;;;;;;;;5068111;28;20056;-76
2023/07/16 01:53:47;;;;;;;7.28;3.42;;;;;;;;;;5083830;28;20032;-76
2023/07/16 01:56:13;;;;;;;9.57;3.50;;;;;;;;;;5071020;28;20025;-77
2023/07/16 01:58:39;;;;;;;6.38;2.85;;;;;;;;;;5068627;28;20039;-76
2023/07/16 02:01:06;;;;;;;5.43;2.97;;;;;;;;;;5063521;28;20020;-76
2023/07/16 02:03:32;;;;;;;6.25;3.17;;;;;;;;;;5067154;28;20382;-76
2023/07/16 02:05:58;;;;;;;12.40;4.15;;;;;;;;;;5067571;28;20022;-76
2023/07/16 02:08:24;;;;;;;6.07;3.20;;;;;;;;;;5069611;28;20031;-75
2023/07/16 02:10:50;;;;;;;8.43;3.33;;;;;;;;;;5066520;28;20025;-76
2023/07/16 02:13:16;;;;;;;6.28;3.30;;;;;;;;;;5062239;28;20031;-77
2023/07/16 02:15:45;;;;;;;6.70;4.03;;;;;;;;;;5068973;28;20044;-76
2023/07/16 02:18:11;;;;;;;7.32;3.17;;;;;;;;;;5059201;28;20017;-76
2023/07/16 02:20:37;;;;;;;5.97;3.10;;;;;;;;;;5073925;28;20021;-76
2023/07/16 02:23:03;;;;;;;5.63;2.85;;;;;;;;;;5073921;28;20067;-77
2023/07/16 02:25:30;;;;;;;6.60;2.80;;;;;;;;;;5071416;28;20021;-75
2023/07/16 02:27:56;;;;;;;12.80;4.32;;;;;;;;;;5065044;28;20120;-76
2023/07/16 02:30:22;;;;;;;7.07;2.92;;;;;;;;;;5069307;28;20108;-76
2023/07/16 02:32:48;;;;;;;8.60;3.47;;;;;;;;;;5067450;28;20032;-75
2023/07/16 02:35:14;;;;;;;6.78;3.00;;;;;;;;;;5071013;28;20695;-76
2023/07/16 02:37:40;;;;;;;7.32;3.00;;;;;;;;;;5076117;28;20012;-75
2023/07/16 02:40:07;;;;;;;9.48;3.25;;;;;;;;;;5075474;28;20032;-77
2023/07/16 02:42:33;;;;;;;9.68;3.47;;;;;;;;;;5081717;28;20111;-77
2023/07/16 02:44:59;;;;;;;5.38;2.95;;;;;;;;;;5082596;28;20071;-76
2023/07/16 02:47:26;;;;;;;5.28;2.80;;;;;;;;;;5082532;28;20020;-76
2023/07/16 02:49:52;;;;;;;7.70;3.50;;;;;;;;;;5071747;28;20044;-76
2023/07/16 02:52:18;;;;;;;6.30;3.95;;;;;;;;;;5088001;28;20120;-77
2023/07/16 02:54:45;;;;;;;10.55;3.28;;;;;;;;;;5088787;28;20032;-76
2023/07/16 02:57:11;;;;;;;4.85;3.00;;;;;;;;;;5069598;28;20678;-77
2023/07/16 02:59:37;;;;;;;6.90;2.63;;;;;;;;;;5069118;28;20126;-76
2023/07/16 03:02:03;;;;;;;5.85;3.00;;;;;;;;;;5067806;28;20464;-76
2023/07/16 03:04:29;;;;;;;7.90;3.40;;;;;;;;;;5068989;28;20040;-76
2023/07/16 03:06:55;;;;;;;10.98;3.42;;;;;;;;;;5067674;28;20044;-76
2023/07/16 03:09:21;;;;;;;6.32;3.05;;;;;;;;;;5063909;28;20025;-75
2023/07/16 03:11:47;;;;;;;5.50;2.58;;;;;;;;;;5087396;28;20033;-77
2023/07/16 03:14:13;;;;;;;8.25;3.08;;;;;;;;;;5065155;28;20075;-76
2023/07/16 03:16:39;;;;;;;8.80;3.22;;;;;;;;;;5070966;28;20122;-75
2023/07/16 03:19:06;;;;;;;5.68;3.25;;;;;;;;;;5074267;28;20032;-76
2023/07/16 03:21:32;;;;;;;6.88;3.05;;;;;;;;;;5088579;28;20021;-76
2023/07/16 03:23:58;;;;;;;6.25;2.47;;;;;;;;;;5063077;28;20129;-76
2023/07/16 03:26:24;;;;;;;10.43;3.20;;;;;;;;;;5068873;28;20029;-74
2023/07/16 03:28:50;;;;;;;9.38;2.60;;;;;;;;;;5064809;28;20141;-74
2023/07/16 03:31:16;;;;;;;6.60;3.00;;;;;;;;;;5072549;28;20116;-75
2023/07/16 03:33:43;;;;;;;9.85;3.70;;;;;;;;;;5067907;28;20093;-76
2023/07/16 03:36:09;;;;;;;7.55;3.08;;;;;;;;;;5073568;28;20497;-75
2023/07/16 03:38:35;;;;;;;5.47;2.58;;;;;;;;;;5070418;28;20043;-76
2023/07/16 03:41:02;;;;;;;3.15;2.40;;;;;;;;;;5075408;28;20033;-75
2023/07/16 03:43:28;;;;;;;7.05;2.33;;;;;;;;;;5070059;28;20047;-76
2023/07/16 03:45:54;;;;;;;6.40;2.70;;;;;;;;;;5069899;28;20028;-76
2023/07/16 03:48:20;;;;;;;5.25;2.42;;;;;;;;;;5071506;28;20082;-76
2023/07/16 03:50:47;;;;;;;5.80;2.70;;;;;;;;;;5093290;28;20085;-76
2023/07/16 03:53:13;;;;;;;6.40;2.90;;;;;;;;;;5067658;28;20028;-75
2023/07/16 03:55:39;;;;;;;11.63;3.08;;;;;;;;;;5073060;28;20093;-75
2023/07/16 03:58:05;;;;;;;5.93;3.08;;;;;;;;;;5074539;28;20016;-76
2023/07/16 04:00:32;;;;;;;5.85;2.50;;;;;;;;;;5073980;28;20094;-75
2023/07/16 04:02:58;;;;;;;6.00;2.45;;;;;;;;;;5071501;28;20048;-75
2023/07/16 04:05:25;;;;;;;5.55;3.08;;;;;;;;;;5073486;28;20029;-75
2023/07/16 04:07:52;;;;;;;7.38;2.83;;;;;;;;;;5091356;28;20116;-76
2023/07/16 04:10:18;;;;;;;3.95;2.10;;;;;;;;;;5070715;28;20055;-75
2023/07/16 04:12:44;;;;;;;3.53;2.38;;;;;;;;;;5075507;28;20042;-76
2023/07/16 04:15:10;;;;;;;4.68;2.53;;;;;;;;;;5070512;28;20498;-75
2023/07/16 04:17:36;;;;;;;3.53;2.40;;;;;;;;;;5068054;28;20033;-75
2023/07/16 04:20:03;;;;;;;4.18;2.30;;;;;;;;;;5068155;28;20029;-76
2023/07/16 04:22:29;;;;;;;6.05;2.78;;;;;;;;;;5062452;28;20064;-75
2023/07/16 04:24:55;;;;;;;4.53;2.80;;;;;;;;;;5073558;28;21938;-75
2023/07/16 04:27:21;;;;;;;5.15;3.03;;;;;;;;;;5069124;28;20017;-76
2023/07/16 04:29:48;;;;;;;3.80;2.60;;;;;;;;;;5069905;28;20031;-76
2023/07/16 04:32:14;;;;;;;5.88;2.80;;;;;;;;;;5066924;28;20032;-76
2023/07/16 04:34:40;;;;;;;4.82;2.47;;;;;;;;;;5072851;28;20040;-75
2023/07/16 04:37:06;;;;;;;5.40;2.20;;;;;;;;;;5085881;28;20025;-76
2023/07/16 04:39:32;;;;;;;3.97;2.33;;;;;;;;;;5068533;28;20031;-76
2023/07/16 04:41:58;;;;;;;5.53;2.97;;;;;;;;;;5068734;28;20029;-76
2023/07/16 04:44:24;;;;;;;5.55;2.95;;;;;;;;;;5069881;28;20033;-76
2023/07/16 04:46:50;;;;;;;9.10;2.95;;;;;;;;;;5068242;28;20025;-76
2023/07/16 04:49:16;;;;;;;3.20;2.30;;;;;;;;;;5068659;28;20484;-76
2023/07/16 04:51:42;;;;;;;3.40;2.92;;;;;;;;;;5071049;28;20042;-76
2023/07/16 04:54:08;;;;;;;4.72;2.60;;;;;;;;;;5062139;28;20032;-75
2023/07/16 04:56:35;;;;;;;4.88;2.45;;;;;;;;;;5061961;28;20128;-76
2023/07/16 04:59:01;;;;;;;6.30;2.25;;;;;;;;;;5079053;28;20074;-75
2023/07/16 05:01:27;;;;;;;5.50;2.50;;;;;;;;;;5084973;28;20053;-76
2023/07/16 05:03:53;;;;;;;5.20;2.83;;;;;;;;;;5066252;28;20029;-75
2023/07/16 05:06:19;;;;;;;2.95;2.30;;;;;;;;;;5066440;28;20054;-77
2023/07/16 05:08:45;;;;;;;7.88;2.65;;;;;;;;;;5082579;28;20032;-76
2023/07/16 05:11:12;;;;;;;5.53;2.30;;;;;;;;;;5071242;28;20028;-76
2023/07/16 05:13:38;;;;;;;3.78;2.42;;;;;;;;;;5069679;28;20425;-76
2023/07/16 05:16:05;;;;;;;5.18;2.50;;;;;;;;;;5064929;28;20570;-73
2023/07/16 05:18:31;;;;;;;10.25;3.17;;;;;;;;;;5067800;28;20093;-76
2023/07/16 05:20:57;;;;;;;5.10;2.20;;;;;;;;;;5074396;28;20115;-76
2023/07/16 05:23:23;;;;;;;3.72;2.58;;;;;;;;;;5067365;28;20025;-75
2023/07/16 05:25:50;;;;;;;6.10;2.25;;;;;;;;;;5069344;28;20064;-76
2023/07/16 05:28:16;;;;;;;8.68;2.45;;;;;;;;;;5067678;28;20082;-76
2023/07/16 05:30:42;;;;;;;4.70;2.55;;;;;;;;;;5070521;28;20091;-76
2023/07/16 05:33:09;;;;;;;5.90;2.25;;;;;;;;;;5062161;28;20059;-75
2023/07/16 05:35:36;;;;;;;6.30;2.60;;;;;;;;;;5073679;28;20024;-76
2023/07/16 05:38:02;;;;;;;6.38;2.60;;;;;;;;;;5065260;28;20116;-76
2023/07/16 05:40:29;;;;;;;5.50;2.58;;;;;;;;;;5068975;28;20090;-76
2023/07/16 05:42:55;;;;;;;4.55;2.70;;;;;;;;;;5071250;28;20025;-76
2023/07/16 05:45:21;;;;;;;6.65;2.47;;;;;;;;;;5065507;28;20197;-76
2023/07/16 05:47:47;;;;;;;3.92;2.30;;;;;;;;;;5074954;28;20036;-76
2023/07/16 05:50:13;;;;;;;6.45;2.40;;;;;;;;;;5068866;28;20055;-75
2023/07/16 05:52:39;;;;;;;5.40;2.38;;;;;;;;;;5074724;28;20029;-76
2023/07/16 05:55:06;;;;;;;6.97;2.50;;;;;;;;;;5088057;28;20020;-77
2023/07/16 05:57:32;;;;;;;6.47;3.97;;;;;;;;;;5077307;28;20036;-76
2023/07/16 05:59:58;;;;;;;8.50;3.50;;;;;;;;;;5081081;28;20020;-76
2023/07/16 06:02:24;;;;;;;5.32;2.40;;;;;;;;;;5075763;28;20045;-75
2023/07/16 06:04:50;;;;;;;3.85;2.50;;;;;;;;;;5073821;28;20032;-77
2023/07/16 06:07:17;;;;;;;5.90;2.28;;;;;;;;;;5063012;28;20085;-75
2023/07/16 06:09:43;;;;;;;5.25;2.40;;;;;;;;;;5066777;28;20028;-76
2023/07/16 06:12:09;;;;;;;5.68;3.08;;;;;;;;;;5067806;28;20040;-76
2023/07/16 06:14:35;;;;;;;4.03;2.45;;;;;;;;;;5069912;28;20477;-76
2023/07/16 06:17:01;;;;;;;5.82;2.28;;;;;;;;;;5067887;28;20036;-77
2023/07/16 06:19:28;;;;;;;6.88;2.53;;;;;;;;;;5066512;28;20024;-76
2023/07/16 06:21:54;;;;;;;5.18;2.60;;;;;;;;;;5064554;28;20032;-76
2023/07/16 06:24:20;;;;;;;4.53;2.25;;;;;;;;;;5066288;28;20689;-77
2023/07/16 06:26:47;;;;;;;4.10;2.45;;;;;;;;;;5069861;28;20111;-78
2023/07/16 06:29:14;;;;;;;4.38;2.40;;;;;;;;;;5074069;28;20024;-77
2023/07/16 06:31:40;;;;;;;3.92;2.05;;;;;;;;;;5071529;28;20028;-76
2023/07/16 06:34:06;;;;;;;4.78;2.83;;;;;;;;;;5059324;28;20120;-76
2023/07/16 06:36:32;;;;;;;7.05;2.40;;;;;;;;;;5068714;28;20031;-77
2023/07/16 06:39:00;;;;;;;4.80;3.28;;;;;;;;;;5063554;28;20110;-77
2023/07/16 06:41:26;;;;;;;3.92;2.20;;;;;;;;;;5068448;28;20031;-76
2023/07/16 06:43:52;;;;;;;3.25;2.25;;;;;;;;;;5063376;28;20039;-77
2023/07/16 06:46:18;;;;;;;3.10;2.17;;;;;;;;;;5064575;28;20281;-76
2023/07/16 06:48:44;;;;;;;4.20;2.30;;;;;;;;;;5068266;28;20095;-75
2023/07/16 06:51:10;;;;;;;7.35;2.40;;;;;;;;;;5069771;28;20040;-76
2023/07/16 06:53:36;;;;;;;6.63;2.30;;;;;;;;;;5065388;28;20074;-76
2023/07/16 06:56:03;;;;;;;5.53;2.30;;;;;;;;;;5059555;28;20032;-75
2023/07/16 06:58:33;;;;;;;6.65;2.55;;;;;;;;;;5060606;28;20032;-77
2023/07/16 07:00:59;;;;;;;4.22;2.25;;;;;;;;;;5052228;28;20025;-77
2023/07/16 07:03:25;;;;;;;4.25;2.42;;;;;;;;;;5057359;28;20032;-76
2023/07/16 07:05:52;;;;;;;6.30;2.25;;;;;;;;;;5071124;28;20040;-76
2023/07/16 07:08:18;;;;;;;5.85;2.83;;;;;;;;;;5071071;28;20035;-77
2023/07/16 07:10:44;;;;;;;8.40;2.78;;;;;;;;;;5084305;28;20119;-76
2023/07/16 07:13:10;;;;;;;4.93;2.35;;;;;;;;;;5066688;28;20050;-76
2023/07/16 07:15:36;;;;;;;5.32;2.70;;;;;;;;;;5067022;28;20040;-76
2023/07/16 07:18:02;;;;;;;9.23;2.55;;;;;;;;;;5064079;28;20116;-77
2023/07/16 07:20:28;;;;;;;7.68;3.00;;;;;;;;;;5065030;28;20288;-77
2023/07/16 07:22:55;;;;;;;5.45;2.80;;;;;;;;;;5066087;28;20109;-76
2023/07/16 07:25:21;;;;;;;7.40;3.25;;;;;;;;;;5066915;28;20486;-75
2023/07/16 07:27:47;;;;;;;8.27;2.65;;;;;;;;;;5066934;28;20044;-75
2023/07/16 07:30:13;;;;;;;5.72;2.95;;;;;;;;;;5064435;28;20032;-77
2023/07/16 07:32:39;;;;;;;7.00;3.10;;;;;;;;;;5065773;28;20905;-76
2023/07/16 07:35:11;;;;;;;5.07;2.60;;;;;;;;;;5060520;28;20050;-77
2023/07/16 07:37:37;;;;;;;12.00;3.05;;;;;;;;;;5053738;28;20025;-78
2023/07/16 07:40:04;;;;;;;3.60;2.40;;;;;;;;;;5060302;28;20390;-79
2023/07/16 07:42:30;;;;;;;5.90;2.80;;;;;;;;;;5062128;28;20033;-76
2023/07/16 07:44:56;;;;;;;7.00;2.97;;;;;;;;;;5066166;28;20025;-77
2023/07/16 07:47:22;;;;;;;4.45;2.70;;;;;;;;;;5068822;28;20028;-76
2023/07/16 07:49:48;;;;;;;8.00;3.00;;;;;;;;;;5066076;28;20044;-77
2023/07/16 07:52:15;;;;;;;5.40;2.80;;;;;;;;;;5068674;28;20137;-77
2023/07/16 07:54:41;;;;;;;6.53;4.25;;;;;;;;;;5060419;28;20037;-77
2023/07/16 07:57:08;;;;;;;8.73;2.58;;;;;;;;;;5058653;28;20020;-76
2023/07/16 07:59:34;;;;;;;7.20;2.88;;;;;;;;;;5065145;28;20486;-76
2023/07/16 08:02:01;;;;;;;5.68;3.05;;;;;;;;;;5064963;28;20052;-75
2023/07/16 08:04:28;;;;;;;7.45;3.05;;;;;;;;;;5061101;28;20048;-76
2023/07/16 08:06:54;;;;;;;11.57;4.28;;;;;;;;;;5063026;28;20856;-77
2023/07/16 08:09:20;;;;;;;3.72;2.67;;;;;;;;;;5061864;28;20432;-77
2023/07/16 08:11:47;;;;;;;7.45;2.97;;;;;;;;;;5064015;28;20040;-77
2023/07/16 08:14:13;;;;;;;9.73;2.60;;;;;;;;;;5058304;28;20573;-76
2023/07/16 08:16:39;;;;;;;15.18;3.50;;;;;;;;;;5065875;28;20049;-77
2023/07/16 08:19:05;;;;;;;5.70;2.97;;;;;;;;;;5064319;28;20039;-78
2023/07/16 08:21:32;;;;;;;7.93;3.42;;;;;;;;;;5062824;28;20445;-77
2023/07/16 08:23:59;;;;;;;6.40;2.55;;;;;;;;;;5059160;28;20029;-78
2023/07/16 08:26:26;;;;;;;8.43;3.13;;;;;;;;;;5061346;28;20024;-77
2023/07/16 08:28:52;;;;;;;9.43;3.28;;;;;;;;;;5062549;28;20039;-79
2023/07/16 08:31:19;;;;;;;5.10;2.78;;;;;;;;;;5064876;28;20059;-77
2023/07/16 08:33:45;;;;;;;5.45;2.70;;;;;;;;;;5066596;28;20024;-77
2023/07/16 08:36:11;;;;;;;5.55;2.70;;;;;;;;;;5061827;28;20858;-78
2023/07/16 08:38:40;;;;;;;6.40;2.67;;;;;;;;;;5066382;28;20527;-77
2023/07/16 08:41:06;;;;;;;8.85;2.72;;;;;;;;;;5067625;28;20024;-77
2023/07/16 08:43:33;;;;;;;8.55;3.47;;;;;;;;;;5081192;28;20015;-77
2023/07/16 08:46:01;;;;;;;11.93;3.38;;;;;;;;;;5066003;28;20033;-77
2023/07/16 08:48:29;;;;;;;8.02;2.95;;;;;;;;;;5067865;28;20039;-77
2023/07/16 08:50:56;;;;;;;9.88;3.30;;;;;;;;;;5060704;28;20047;-76
2023/07/16 08:53:22;;;;;;;4.57;2.90;;;;;;;;;;5066426;28;20028;-77
2023/07/16 08:55:48;;;;;;;8.50;2.90;;;;;;;;;;5089201;28;20029;-77
2023/07/16 08:58:14;;;;;;;7.45;2.47;;;;;;;;;;5072596;28;20020;-77
2023/07/16 09:00:42;;;;;;;8.10;2.83;;;;;;;;;;5082846;28;20123;-79
2023/07/16 09:03:08;;;;;;;6.55;2.30;;;;;;;;;;5079163;28;20032;-77
2023/07/16 09:05:36;;;;;;;6.07;2.95;;;;;;;;;;5073975;28;20470;-75
2023/07/16 09:08:02;;;;;;;8.55;2.40;;;;;;;;;;5072791;28;20264;-78
2023/07/16 09:10:28;;;;;;;6.35;2.45;;;;;;;;;;5066830;28;20047;-76
2023/07/16 09:12:54;;;;;;;8.38;3.22;;;;;;;;;;5071333;28;20031;-77
2023/07/16 09:15:20;;;;;;;8.68;4.35;;;;;;;;;;5064137;28;20044;-76
2023/07/16 09:17:50;;;;;;;6.70;2.55;;;;;;;;;;5065399;28;20021;-79
2023/07/16 09:20:18;;;;;;;6.50;3.10;;;;;;;;;;5071682;28;20027;-79
2023/07/16 09:22:45;;;;;;;5.82;2.70;;;;;;;;;;5083015;28;20111;-78
2023/07/16 09:25:12;;;;;;;5.43;2.38;;;;;;;;;;5065470;28;20063;-79
2023/07/16 09:27:39;;;;;;;4.90;2.55;;;;;;;;;;5072885;28;20071;-79
2023/07/16 09:30:09;;;;;;;7.15;2.97;;;;;;;;;;5073209;28;20035;-77
2023/07/16 09:32:36;;;;;;;4.65;2.90;;;;;;;;;;5071393;28;20088;-79
2023/07/16 09:35:09;;;;;;;6.82;2.42;;;;;;;;;;5072475;28;20043;-79
2023/07/16 09:37:40;;;;;;;4.88;2.63;;;;;;;;;;5067573;28;20588;-79
2023/07/16 09:40:11;;;;;;;10.93;3.75;;;;;;;;;;5070626;28;20033;-79
2023/07/16 09:42:38;;;;;;;4.45;2.33;;;;;;;;;;5065318;28;20829;-76
2023/07/16 09:45:07;;;;;;;6.32;2.58;;;;;;;;;;5067278;28;20086;-78
2023/07/16 09:47:34;;;;;;;7.32;2.53;;;;;;;;;;5086411;28;20179;-79
2023/07/16 09:50:02;;;;;;;8.63;2.63;;;;;;;;;;5078935;28;20393;-78
2023/07/16 09:52:32;;;;;;;8.50;2.42;;;;;;;;;;5087014;28;20032;-78
2023/07/16 09:55:04;;;;;;;7.30;2.30;;;;;;;;;;5066320;28;20036;-77
2023/07/16 09:57:43;;;;;;;7.43;2.40;;;;;;;;;;5066417;28;20032;-77
2023/07/16 10:00:13;;;;;;;5.43;2.08;;;;;;;;;;5068533;28;20393;-78
2023/07/16 10:02:41;;;;;;;4.72;2.30;;;;;;;;;;5061690;28;20038;-78
2023/07/16 10:05:14;;;;;;;6.50;3.00;;;;;;;;;;5068322;28;20028;-76
2023/07/16 10:07:41;;;;;;;4.47;2.30;;;;;;;;;;5060402;28;20043;-77
2023/07/16 10:10:09;;;;;;;7.25;2.33;;;;;;;;;;5064506;28;20047;-76
2023/07/16 10:12:35;;;;;;;4.30;2.60;;;;;;;;;;5055900;28;20036;-76
2023/07/16 10:15:03;;;;;;;5.20;2.40;;;;;;;;;;5080479;28;20085;-76
2023/07/16 10:17:30;;;;;;;15.80;3.10;;;;;;;;;;5063759;28;20135;-76
2023/07/16 10:20:07;;;;;;;3.58;2.03;;;;;;;;;;5064984;28;20144;-76
2023/07/16 10:22:37;;;;;;;6.10;2.33;;;;;;;;;;5057464;28;20035;-77
2023/07/16 10:25:03;;;;;;;5.30;2.22;;;;;;;;;;5062838;28;20070;-76
2023/07/16 10:27:31;;;;;;;5.75;2.38;;;;;;;;;;5057190;28;20477;-75
2023/07/16 10:29:57;;;;;;;3.88;2.00;;;;;;;;;;5061067;28;20036;-76
2023/07/16 10:32:27;;;;;;;4.57;2.55;;;;;;;;;;5059304;28;20980;-77
2023/07/16 10:34:53;;;;;;;3.28;2.10;;;;;;;;;;5062038;28;20043;-76
2023/07/16 10:37:19;;;;;;;3.42;2.15;;;;;;;;;;5068372;28;20383;-75
2023/07/16 10:39:48;;;;;;;5.38;2.90;;;;;;;;;;5065317;28;20071;-76
2023/07/16 10:42:16;;;;;;;7.30;2.30;;;;;;;;;;5069182;28;20037;-76
2023/07/16 10:44:42;;;;;;;5.68;2.40;;;;;;;;;;5065768;28;20514;-76
2023/07/16 10:47:09;;;;;;;3.58;2.10;;;;;;;;;;5067101;28;20032;-76
2023/07/16 10:49:35;;;;;;;4.25;1.90;;;;;;;;;;5066314;28;20029;-76
2023/07/16 10:52:02;;;;;;;4.75;2.10;;;;;;;;;;5066289;28;20044;-77
2023/07/16 10:54:28;;;;;;;4.50;2.17;;;;;;;;;;5067133;28;20029;-78
2023/07/16 10:56:54;;;;;;;5.30;2.40;;;;;;;;;;5071160;28;20037;-78
2023/07/16 10:59:22;;;;;;;3.88;2.22;;;;;;;;;;5075829;28;20021;-76
2023/07/16 11:01:48;;;;;;;3.28;2.13;;;;;;;;;;5077015;28;20032;-76
2023/07/16 11:04:14;;;;;;;4.25;2.67;;;;;;;;;;5062487;28;20029;-76
2023/07/16 11:06:40;;;;;;;4.22;2.25;;;;;;;;;;5064676;28;20898;-75
2023/07/16 11:09:07;;;;;;;3.13;2.10;;;;;;;;;;5062804;28;20198;-77
2023/07/16 11:11:33;;;;;;;4.95;2.30;;;;;;;;;;5056666;28;20025;-76
2023/07/16 11:13:59;;;;;;;4.25;2.63;;;;;;;;;;5087391;28;20033;-75
2023/07/16 11:16:26;;;;;;;4.28;2.42;;;;;;;;;;5067090;28;20049;-77
2023/07/16 11:18:52;;;;;;;4.75;2.25;;;;;;;;;;5068065;28;20051;-76
2023/07/16 11:21:21;;;;;;;5.43;2.13;;;;;;;;;;5067677;28;20036;-76
2023/07/16 11:23:47;;;;;;;3.90;2.90;;;;;;;;;;5062879;28;20043;-77
2023/07/16 11:26:15;;;;;;;5.32;2.40;;;;;;;;;;5066303;28;20070;-76
2023/07/16 11:28:42;;;;;;;5.18;2.38;;;;;;;;;;5065097;28;20032;-76
2023/07/16 11:31:26;;;;;;;5.57;2.70;;;;;;;;;;5070345;28;20506;-76
2023/07/16 11:33:52;;;;;;;4.30;2.03;;;;;;;;;;5088682;28;20039;-76
2023/07/16 11:36:18;;;;;;;6.82;2.70;;;;;;;;;;5073501;28;20048;-77
2023/07/16 11:38:45;;;;;;;4.15;2.22;;;;;;;;;;5067649;28;20040;-77
2023/07/16 11:41:11;;;;;;;8.77;3.03;;;;;;;;;;5066163;28;20122;-78
2023/07/16 11:43:37;;;;;;;4.40;2.42;;;;;;;;;;5067251;28;20421;-76
2023/07/16 11:46:04;;;;;;;3.75;2.35;;;;;;;;;;5065629;28;20478;-76
2023/07/16 11:48:30;;;;;;;6.47;2.50;;;;;;;;;;5065816;28;20111;-76
2023/07/16 11:50:56;;;;;;;5.25;2.63;;;;;;;;;;5063547;28;20039;-77
2023/07/16 11:53:22;;;;;;;7.22;2.92;;;;;;;;;;5065055;28;20036;-77
2023/07/16 11:55:48;;;;;;;4.50;2.30;;;;;;;;;;5071148;28;20035;-77
2023/07/16 11:58:14;;;;;;;3.50;2.65;;;;;;;;;;5082536;28;20050;-76
2023/07/16 12:00:41;;;;;;;4.03;2.30;;;;;;;;;;5082362;28;20033;-77
2023/07/16 12:03:07;;;;;;;5.40;2.20;;;;;;;;;;5078851;28;20529;-77
2023/07/16 12:05:33;;;;;;;3.20;2.22;;;;;;;;;;5074923;28;20029;-78
2023/07/16 12:07:59;;;;;;;2.25;1.83;;;;;;;;;;5064584;28;20105;-77
2023/07/16 12:10:25;;;;;;;4.82;2.40;;;;;;;;;;5061845;28;20029;-76
2023/07/16 12:12:51;;;;;;;6.43;2.30;;;;;;;;;;5067496;28;20218;-76
2023/07/16 12:15:17;;;;;;;4.30;2.25;;;;;;;;;;5063496;28;20407;-75
2023/07/16 12:17:43;;;;;;;7.18;2.13;;;;;;;;;;5065660;28;20031;-77
2023/07/16 12:20:10;;;;;;;3.60;2.10;;;;;;;;;;5069059;28;20035;-75
2023/07/16 12:22:36;;;;;;;4.97;2.40;;;;;;;;;;5069456;28;20397;-76
2023/07/16 12:25:02;;;;;;;3.17;1.90;;;;;;;;;;5063289;28;20111;-78
2023/07/16 12:27:30;;;;;;;5.03;1.90;;;;;;;;;;5062075;28;20188;-76
2023/07/16 12:29:56;;;;;;;6.70;2.53;;;;;;;;;;5067174;28;20107;-77
2023/07/16 12:32:22;;;;;;;3.10;2.17;;;;;;;;;;5062865;28;20043;-76
2023/07/16 12:34:48;;;;;;;4.45;2.15;;;;;;;;;;5063600;28;20619;-78
2023/07/16 12:37:16;;;;;;;4.35;2.40;;;;;;;;;;5063059;28;20120;-79
2023/07/16 12:39:43;;;;;;;5.18;2.10;;;;;;;;;;5065749;28;20036;-78
2023/07/16 12:42:09;;;;;;;2.60;1.90;;;;;;;;;;5078524;28;20031;-78
2023/07/16 12:44:35;;;;;;;3.88;1.83;;;;;;;;;;5059755;28;20029;-79
2023/07/16 12:47:02;;;;;;;3.83;1.92;;;;;;;;;;5060935;28;20809;-79
2023/07/16 12:49:28;;;;;;;3.13;2.00;;;;;;;;;;5074249;28;20658;-77
2023/07/16 12:51:54;;;;;;;3.85;1.88;;;;;;;;;;5061433;28;20043;-78
2023/07/16 12:54:20;;;;;;;3.78;2.00;;;;;;;;;;5062408;28;20548;-77
2023/07/16 12:56:46;;;;;;;4.28;2.00;;;;;;;;;;5058971;28;20135;-79
2023/07/16 12:59:12;;;;;;;5.43;2.38;;;;;;;;;;5055240;28;20033;-76
2023/07/16 13:01:38;;;;;;;3.50;2.10;;;;;;;;;;5057923;28;20024;-78
2023/07/16 13:04:04;;;;;;;3.08;1.98;;;;;;;;;;5059562;28;20037;-77
2023/07/16 13:06:31;;;;;;;6.47;2.33;;;;;;;;;;5062173;28;20119;-77
2023/07/16 13:08:57;;;;;;;2.95;2.20;;;;;;;;;;5063663;28;20375;-78
2023/07/16 13:11:23;;;;;;;4.28;2.78;;;;;;;;;;5062436;28;20032;-78
2023/07/16 13:13:49;;;;;;;2.65;2.10;;;;;;;;;;5060006;28;20037;-77
2023/07/16 13:16:15;;;;;;;3.33;2.53;;;;;;;;;;5058399;28;20044;-77
2023/07/16 13:18:41;;;;;;;4.40;2.22;;;;;;;;;;5058566;28;20108;-76
2023/07/16 13:21:07;;;;;;;5.22;2.10;;;;;;;;;;5063929;28;20029;-77
2023/07/16 13:23:35;;;;;;;3.50;2.08;;;;;;;;;;5064646;28;20032;-76
2023/07/16 13:26:01;;;;;;;3.72;2.00;;;;;;;;;;5061406;28;20032;-77
2023/07/16 13:28:27;;;;;;;4.03;2.60;;;;;;;;;;5059670;28;20060;-78
2023/07/16 13:30:54;;;;;;;2.25;2.00;;;;;;;;;;5061105;28;20070;-77
2023/07/16 13:33:20;;;;;;;3.50;2.10;;;;;;;;;;5061789;28;20036;-77
2023/07/16 13:35:46;;;;;;;3.53;2.33;;;;;;;;;;5061828;28;20029;-76
2023/07/16 13:38:15;;;;;;;3.58;2.70;;;;;;;;;;5078694;28;20028;-80
2023/07/16 13:40:41;;;;;;;5.80;2.35;;;;;;;;;;5058136;28;20021;-77
2023/07/16 13:43:07;;;;;;;3.63;2.30;;;;;;;;;;5061790;28;20040;-77
2023/07/16 13:45:35;;;;;;;5.15;3.00;;;;;;;;;;5058401;28;20028;-77
2023/07/16 13:48:01;;;;;;;4.05;2.67;;;;;;;;;;5061434;28;20077;-77
2023/07/16 13:50:27;;;;;;;2.83;2.15;;;;;;;;;;5062079;28;20032;-77
2023/07/16 13:52:54;;;;;;;4.88;2.50;;;;;;;;;;5063398;28;20474;-76
2023/07/16 13:55:20;;;;;;;6.10;2.60;;;;;;;;;;5061284;28;20527;-78
2023/07/16 13:57:46;;;;;;;3.28;2.38;;;;;;;;;;5074777;28;20119;-78
2023/07/16 14:00:12;;;;;;;5.20;2.90;;;;;;;;;;5064692;28;20043;-78
2023/07/16 14:02:38;;;;;;;3.08;2.30;;;;;;;;;;5061462;28;20103;-78
2023/07/16 14:05:04;;;;;;;5.15;2.80;;;;;;;;;;5064806;28;20050;-77
2023/07/16 14:07:32;;;;;;;2.60;2.28;;;;;;;;;;5075061;28;20048;-76
2023/07/16 14:09:58;;;;;;;2.80;2.20;;;;;;;;;;5055763;28;20025;-77
2023/07/16 14:12:24;;;;;;;3.42;2.65;;;;;;;;;;5052973;28;20395;-77
2023/07/16 14:14:50;;;;;;;4.70;2.28;;;;;;;;;;5073356;28;20033;-77
2023/07/16 14:17:16;;;;;;;3.67;2.40;;;;;;;;;;5061431;28;20048;-77
2023/07/16 14:19:42;;;;;;;5.13;2.20;;;;;;;;;;5057809;28;20031;-75
2023/07/16 14:22:12;;;;;;;3.10;2.20;;;;;;;;;;5063993;28;20052;-76
2023/07/16 14:24:39;;;;;;;3.65;2.60;;;;;;;;;;5059456;28;20028;-76
2023/07/16 14:27:07;;;;;;;5.28;2.60;;;;;;;;;;5060711;28;20028;-76
2023/07/16 14:29:33;;;;;;;4.85;2.83;;;;;;;;;;5057836;28;20497;-75
2023/07/16 14:31:59;;;;;;;3.97;2.40;;;;;;;;;;5060409;28;20498;-77
2023/07/16 14:34:28;;;;;;;3.00;2.38;;;;;;;;;;5056627;28;20036;-73
2023/07/16 14:36:54;;;;;;;3.38;2.53;;;;;;;;;;5063202;28;20111;-74